createdAt,value
2019-02-26T00:01:01.551Z,27.90
2019-02-26T00:03:31.401Z,27.70
2019-02-26T00:05:59.441Z,30.10
2019-02-26T00:08:29.646Z,26.83
2019-02-26T00:10:59.344Z,28.87
2019-02-26T00:13:27.664Z,29.73
2019-02-26T00:15:56.461Z,27.20
2019-02-26T00:18:24.019Z,30.70
2019-02-26T00:20:51.487Z,30.70
2019-02-26T00:23:19.792Z,31.63
2019-02-26T00:25:48.160Z,31.17
2019-02-26T00:28:17.508Z,31.57
2019-02-26T00:30:45.024Z,27.70
2019-02-26T00:33:12.535Z,26.43
2019-02-26T00:35:41.600Z,30.20
2019-02-26T00:38:11.075Z,32.53
2019-02-26T00:40:39.300Z,29.43
2019-02-26T00:43:08.249Z,29.47
2019-02-26T00:45:38.507Z,30.07
2019-02-26T00:48:04.970Z,34.63
2019-02-26T00:50:34.535Z,29.70
2019-02-26T00:53:03.878Z,29.23
2019-02-26T00:55:32.177Z,28.87
2019-02-26T00:58:01.098Z,30.70
2019-02-26T01:00:30.863Z,30.37
2019-02-26T01:03:01.439Z,29.10
2019-02-26T01:05:29.417Z,34.57
2019-02-26T01:07:56.960Z,31.33
2019-02-26T01:10:24.542Z,28.53
2019-02-26T01:12:52.113Z,26.30
2019-02-26T01:15:19.725Z,29.87
2019-02-26T01:17:47.100Z,33.37
2019-02-26T01:20:14.787Z,31.17
2019-02-26T01:22:42.862Z,29.70
2019-02-26T01:25:12.746Z,30.23
2019-02-26T01:27:41.393Z,32.23
2019-02-26T01:30:12.529Z,32.53
2019-02-26T01:32:40.196Z,40.60
2019-02-26T01:35:10.695Z,35.30
2019-02-26T01:37:38.197Z,35.67
2019-02-26T01:40:09.464Z,41.70
2019-02-26T01:42:36.603Z,34.63
2019-02-26T01:45:05.408Z,38.70
2019-02-26T01:47:33.010Z,32.20
2019-02-26T01:50:00.723Z,31.67
2019-02-26T01:52:28.288Z,36.93
2019-02-26T01:54:57.797Z,38.40
2019-02-26T01:57:27.190Z,37.30
2019-02-26T01:59:54.387Z,39.17
2019-02-26T02:02:23.269Z,41.27
2019-02-26T02:04:51.364Z,41.83
2019-02-26T02:07:19.415Z,37.03
2019-02-26T02:09:50.689Z,32.83
2019-02-26T02:12:17.431Z,36.20
2019-02-26T02:14:44.813Z,32.93
2019-02-26T02:17:13.584Z,30.57
2019-02-26T02:19:41.319Z,31.00
2019-02-26T02:22:12.057Z,33.73
2019-02-26T02:24:41.840Z,38.93
2019-02-26T02:27:24.060Z,35.13
2019-02-26T02:29:50.770Z,30.37
2019-02-26T02:32:20.954Z,31.50
2019-02-26T02:34:48.827Z,28.97
2019-02-26T02:37:18.449Z,31.20
2019-02-26T02:39:45.678Z,29.17
2019-02-26T02:42:14.194Z,27.57
2019-02-26T02:44:44.827Z,31.07
2019-02-26T02:47:11.896Z,34.40
2019-02-26T02:49:39.963Z,30.03
2019-02-26T02:52:11.088Z,31.67
2019-02-26T02:54:38.567Z,32.73
2019-02-26T02:57:09.755Z,32.17
2019-02-26T02:59:39.058Z,32.17
2019-02-26T03:02:06.397Z,32.53
2019-02-26T03:04:34.753Z,30.97
2019-02-26T03:07:03.049Z,32.70
2019-02-26T03:09:34.400Z,33.07
2019-02-26T03:12:01.216Z,30.60
2019-02-26T03:14:30.763Z,33.73
2019-02-26T03:16:58.118Z,31.57
2019-02-26T03:19:25.758Z,32.60
2019-02-26T03:21:55.015Z,33.17
2019-02-26T03:24:25.376Z,30.33
2019-02-26T03:26:51.837Z,37.57
2019-02-26T03:29:19.301Z,34.70
2019-02-26T03:31:54.731Z,31.40
2019-02-26T03:34:21.829Z,35.33
2019-02-26T03:36:45.858Z,32.70
2019-02-26T03:39:13.225Z,35.17
2019-02-26T03:41:40.712Z,36.37
2019-02-26T03:44:08.737Z,38.10
2019-02-26T03:46:36.364Z,35.53
2019-02-26T03:49:03.910Z,33.23
2019-02-26T03:51:31.521Z,40.40
2019-02-26T03:53:59.092Z,38.23
2019-02-26T03:56:26.580Z,36.30
2019-02-26T03:58:57.027Z,34.30
2019-02-26T04:01:23.586Z,39.77
2019-02-26T04:03:51.086Z,37.30
2019-02-26T04:06:18.521Z,38.40
2019-02-26T04:08:48.123Z,35.30
2019-02-26T04:11:16.903Z,35.83
2019-02-26T04:13:45.999Z,33.30
2019-02-26T04:16:15.597Z,33.53
2019-02-26T04:18:43.406Z,35.23
2019-02-26T04:21:12.034Z,35.80
2019-02-26T04:23:42.153Z,35.90
2019-02-26T04:26:49.708Z,37.60
2019-02-26T04:29:50.902Z,38.80
2019-02-26T04:32:57.411Z,34.40
2019-02-26T04:36:03.927Z,32.00
2019-02-26T04:39:07.656Z,32.70
2019-02-26T04:42:09.448Z,30.13
2019-02-26T04:45:11.707Z,33.77
2019-02-26T04:47:40.759Z,34.50
2019-02-26T04:50:09.184Z,35.83
2019-02-26T04:52:40.052Z,33.37
2019-02-26T04:55:06.288Z,33.77
2019-02-26T04:57:33.986Z,35.20
2019-02-26T05:00:04.610Z,34.30
2019-02-26T05:02:32.289Z,33.00
2019-02-26T05:04:59.699Z,36.53
2019-02-26T05:07:27.993Z,35.03
2019-02-26T05:09:56.969Z,33.97
2019-02-26T05:12:25.902Z,31.87
2019-02-26T05:14:54.634Z,31.73
2019-02-26T05:17:24.666Z,39.60
2019-02-26T05:19:51.789Z,32.83
2019-02-26T05:22:22.112Z,33.47
2019-02-26T05:24:50.374Z,41.33
2019-02-26T05:27:21.962Z,38.40
2019-02-26T05:29:49.042Z,39.83
2019-02-26T05:32:17.065Z,38.97
2019-02-26T05:34:45.959Z,36.17
2019-02-26T05:37:14.105Z,47.43
2019-02-26T05:39:43.053Z,37.30
2019-02-26T05:42:11.154Z,42.10
2019-02-26T05:44:38.682Z,42.80
2019-02-26T05:47:06.334Z,40.83
2019-02-26T05:49:37.085Z,34.87
2019-02-26T05:52:04.241Z,40.30
2019-02-26T05:54:32.623Z,37.97
2019-02-26T05:57:01.837Z,38.73
2019-02-26T05:59:29.704Z,37.57
2019-02-26T06:01:58.370Z,39.20
2019-02-26T06:04:26.078Z,46.70
2019-02-26T06:06:56.305Z,37.27
2019-02-26T06:09:25.476Z,44.83
2019-02-26T06:11:52.455Z,37.00
2019-02-26T06:14:19.985Z,39.17
2019-02-26T06:16:48.737Z,38.40
2019-02-26T06:19:19.471Z,40.53
2019-02-26T06:21:49.163Z,42.80
2019-02-26T06:24:20.213Z,40.20
2019-02-26T06:26:46.287Z,38.20
2019-02-26T06:29:13.964Z,39.33
2019-02-26T06:32:12.031Z,42.50
2019-02-26T06:34:39.538Z,40.60
2019-02-26T06:37:13.946Z,33.47
2019-02-26T06:39:42.584Z,39.90
2019-02-26T06:42:12.040Z,40.93
2019-02-26T06:44:41.310Z,42.83
2019-02-26T06:47:09.115Z,38.13
2019-02-26T06:49:36.822Z,41.30
2019-02-26T06:52:05.933Z,39.50
2019-02-26T06:54:33.706Z,41.20
2019-02-26T06:57:01.271Z,39.67
2019-02-26T06:59:31.393Z,40.83
2019-02-26T07:01:58.934Z,39.60
2019-02-26T07:04:27.040Z,40.90
2019-02-26T07:06:59.215Z,39.37
2019-02-26T07:09:25.430Z,40.77
2019-02-26T07:11:52.903Z,37.87
2019-02-26T07:14:22.320Z,38.33
2019-02-26T07:16:49.618Z,39.27
2019-02-26T07:19:17.209Z,39.20
2019-02-26T07:21:45.498Z,40.13
2019-02-26T07:24:15.808Z,39.87
2019-02-26T07:26:45.491Z,40.80
2019-02-26T07:29:17.274Z,40.07
2019-02-26T07:31:42.377Z,38.50
2019-02-26T07:34:09.930Z,36.20
2019-02-26T07:36:37.581Z,40.37
2019-02-26T07:39:06.946Z,39.47
2019-02-26T07:41:36.482Z,42.93
2019-02-26T07:44:04.041Z,36.63
2019-02-26T07:46:33.196Z,39.50
2019-02-26T07:49:04.213Z,40.20
2019-02-26T07:51:31.631Z,41.33
2019-02-26T07:54:00.748Z,38.93
2019-02-26T07:56:30.676Z,36.77
2019-02-26T07:59:01.278Z,41.30
2019-02-26T08:01:27.231Z,37.77
2019-02-26T08:03:54.698Z,45.67
2019-02-26T08:06:22.149Z,38.33
2019-02-26T08:08:49.759Z,40.47
2019-02-26T08:11:18.218Z,38.97
2019-02-26T08:13:45.709Z,42.83
2019-02-26T08:16:13.279Z,41.63
2019-02-26T08:18:41.091Z,42.90
2019-02-26T08:21:08.430Z,43.07
2019-02-26T08:23:35.872Z,38.37
2019-02-26T08:26:03.497Z,39.50
2019-02-26T08:28:30.975Z,37.10
2019-02-26T08:30:58.456Z,38.57
2019-02-26T08:33:26.022Z,38.23
2019-02-26T08:35:55.504Z,41.83
2019-02-26T08:38:22.893Z,37.37
2019-02-26T08:40:50.388Z,37.20
2019-02-26T08:43:17.904Z,38.70
2019-02-26T08:45:45.419Z,37.70
2019-02-26T08:48:15.020Z,38.97
2019-02-26T08:50:44.039Z,38.67
2019-02-26T08:53:12.546Z,35.77
2019-02-26T08:55:40.110Z,39.80
2019-02-26T08:58:09.892Z,38.97
2019-02-26T09:00:37.166Z,38.93
2019-02-26T09:03:04.865Z,38.53
2019-02-26T09:05:34.445Z,44.73
2019-02-26T09:08:01.909Z,43.70
2019-02-26T09:10:29.343Z,40.60
2019-02-26T09:12:56.738Z,42.87
2019-02-26T09:15:24.190Z,40.63
2019-02-26T09:17:51.709Z,39.08
2019-02-26T09:20:19.347Z,40.03
2019-02-26T09:22:48.853Z,37.67
2019-02-26T09:25:16.314Z,38.60
2019-02-26T09:27:43.842Z,36.00
2019-02-26T09:30:14.045Z,37.83
2019-02-26T09:32:44.847Z,39.20
2019-02-26T09:35:13.479Z,35.40
2019-02-26T09:37:42.860Z,39.50
2019-02-26T09:40:11.715Z,37.33
2019-02-26T09:42:39.659Z,36.10
2019-02-26T09:45:09.986Z,38.20
2019-02-26T09:47:37.622Z,38.70
2019-02-26T09:50:06.402Z,35.23
2019-02-26T09:52:33.717Z,37.97
2019-02-26T09:55:01.216Z,43.83
2019-02-26T09:57:28.652Z,38.77
2019-02-26T09:59:59.790Z,38.77
2019-02-26T10:02:28.631Z,40.90
2019-02-26T10:04:56.262Z,37.50
2019-02-26T10:07:23.780Z,42.57
2019-02-26T10:09:51.319Z,42.17
2019-02-26T10:12:18.854Z,41.00
2019-02-26T10:14:46.425Z,43.23
2019-02-26T10:17:14.593Z,41.70
2019-02-26T10:19:43.283Z,42.23
2019-02-26T10:22:13.510Z,40.27
2019-02-26T10:24:40.618Z,39.97
2019-02-26T10:27:09.323Z,40.00
2019-02-26T10:29:39.873Z,41.57
2019-02-26T10:32:06.974Z,40.63
2019-02-26T10:34:36.274Z,39.77
2019-02-26T10:37:03.648Z,39.07
2019-02-26T10:39:32.123Z,41.10
2019-02-26T10:42:02.003Z,39.47
2019-02-26T10:44:29.532Z,39.40
2019-02-26T10:46:58.349Z,39.83
2019-02-26T10:49:28.611Z,40.93
2019-02-26T10:51:57.842Z,37.73
2019-02-26T10:54:25.327Z,39.67
2019-02-26T10:56:52.759Z,37.13
2019-02-26T10:59:20.213Z,39.33
2019-02-26T11:01:51.598Z,39.70
2019-02-26T11:04:18.512Z,40.03
2019-02-26T11:06:46.926Z,43.27
2019-02-26T11:09:18.323Z,40.87
2019-02-26T11:11:44.127Z,39.43
2019-02-26T11:14:14.260Z,37.37
2019-02-26T11:16:40.953Z,37.60
2019-02-26T11:19:10.371Z,38.33
2019-02-26T11:21:37.672Z,35.20
2019-02-26T11:24:06.139Z,36.70
2019-02-26T11:26:35.974Z,36.80
2019-02-26T11:29:03.893Z,34.80
2019-02-26T11:31:31.472Z,36.23
2019-02-26T11:34:00.949Z,36.00
2019-02-26T11:36:30.420Z,31.47
2019-02-26T11:39:01.243Z,33.02
2019-02-26T11:41:29.257Z,34.00
2019-02-26T11:43:57.656Z,34.50
2019-02-26T11:46:27.129Z,28.90
2019-02-26T11:48:55.477Z,27.13
2019-02-26T11:51:23.896Z,25.30
2019-02-26T11:53:51.522Z,24.57
2019-02-26T11:56:21.312Z,26.63
2019-02-26T11:58:48.486Z,27.03
2019-02-26T12:01:16.817Z,25.57
2019-02-26T12:03:44.559Z,23.83
2019-02-26T12:06:12.149Z,22.30
2019-02-26T12:08:41.836Z,20.20
2019-02-26T12:11:13.413Z,24.20
2019-02-26T12:13:39.496Z,18.00
2019-02-26T12:16:07.607Z,16.53
2019-02-26T12:18:36.824Z,16.47
2019-02-26T12:21:05.973Z,19.63
2019-02-26T12:23:34.918Z,14.63
2019-02-26T12:26:03.930Z,14.73
2019-02-26T12:28:32.432Z,16.87
2019-02-26T12:31:01.268Z,17.77
2019-02-26T12:33:32.497Z,18.17
2019-02-26T12:36:02.006Z,17.23
2019-02-26T12:38:29.771Z,18.53
2019-02-26T12:40:57.673Z,18.40
2019-02-26T12:43:25.077Z,17.83
2019-02-26T12:45:55.238Z,13.03
2019-02-26T12:48:22.767Z,15.38
2019-02-26T12:50:52.134Z,15.30
2019-02-26T12:53:20.723Z,19.55
2019-02-26T12:55:50.228Z,18.87
2019-02-26T12:58:20.727Z,19.00
2019-02-26T13:00:48.022Z,18.73
2019-02-26T13:03:19.879Z,18.13
2019-02-26T13:05:45.662Z,16.87
2019-02-26T13:08:19.031Z,12.30
2019-02-26T13:10:49.581Z,8.70
2019-02-26T13:13:13.464Z,8.67
2019-02-26T13:15:40.935Z,9.90
2019-02-26T13:18:08.446Z,8.43
2019-02-26T13:20:36.026Z,8.67
2019-02-26T13:23:16.197Z,10.60
2019-02-26T13:25:33.122Z,11.60
2019-02-26T13:28:00.688Z,9.67
2019-02-26T13:30:29.246Z,10.13
2019-02-26T13:33:00.524Z,9.63
2019-02-26T13:35:26.175Z,8.80
2019-02-26T13:37:53.981Z,11.80
2019-02-26T13:40:21.426Z,8.90
2019-02-26T13:45:19.579Z,10.03
2019-02-26T13:47:47.050Z,10.90
2019-02-26T13:50:18.764Z,8.77
2019-02-26T13:52:46.090Z,9.90
2019-02-26T13:55:13.689Z,10.80
2019-02-26T13:57:41.333Z,9.80
2019-02-26T14:00:10.080Z,9.90
2019-02-26T14:02:37.574Z,8.43
2019-02-26T14:05:05.935Z,9.80
2019-02-26T14:07:34.822Z,8.13
2019-02-26T14:10:02.680Z,10.53
2019-02-26T14:12:30.209Z,9.90
2019-02-26T14:14:57.804Z,8.30
2019-02-26T14:17:25.374Z,8.03
2019-02-26T14:19:52.912Z,7.80
2019-02-26T14:22:20.668Z,11.90
2019-02-26T14:24:48.278Z,10.00
2019-02-26T14:27:15.915Z,10.10
2019-02-26T14:29:43.379Z,9.97
2019-02-26T14:32:10.975Z,9.50
2019-02-26T14:34:38.591Z,9.17
2019-02-26T14:37:06.291Z,10.20
2019-02-26T14:39:33.825Z,10.60
2019-02-26T14:42:01.231Z,13.30
2019-02-26T14:44:28.792Z,13.27
2019-02-26T14:46:56.429Z,11.13
2019-02-26T14:49:24.002Z,12.90
2019-02-26T14:51:51.276Z,10.97
2019-02-26T14:54:19.224Z,15.30
2019-02-26T14:56:46.803Z,12.50
2019-02-26T14:59:14.374Z,11.13
2019-02-26T15:01:42.008Z,11.47
2019-02-26T15:04:09.361Z,13.80
2019-02-26T15:06:36.936Z,12.50
2019-02-26T15:09:05.775Z,12.57
2019-02-26T15:11:34.990Z,16.60
2019-02-26T15:14:02.934Z,12.87
2019-02-26T15:16:33.373Z,14.77
2019-02-26T15:19:00.869Z,14.00
2019-02-26T15:21:28.432Z,13.80
2019-02-26T15:23:56.346Z,15.43
2019-02-26T15:26:24.088Z,14.63
2019-02-26T15:28:51.471Z,17.10
2019-02-26T15:31:19.108Z,18.30
2019-02-26T15:33:46.641Z,15.60
2019-02-26T15:36:14.112Z,16.23
2019-02-26T15:38:41.666Z,15.57
2019-02-26T15:41:09.422Z,20.80
2019-02-26T15:43:36.855Z,18.77
2019-02-26T15:46:04.362Z,19.07
2019-02-26T15:48:33.679Z,20.70
2019-02-26T15:51:01.225Z,21.43
2019-02-26T15:53:28.826Z,19.00
2019-02-26T15:55:59.175Z,20.30
2019-02-26T15:58:26.017Z,20.82
2019-02-26T16:00:53.524Z,17.97
2019-02-26T16:03:21.195Z,21.80
2019-02-26T16:05:49.019Z,21.33
2019-02-26T16:08:18.478Z,19.47
2019-02-26T16:10:46.020Z,18.07
2019-02-26T16:13:13.669Z,20.57
2019-02-26T16:15:41.208Z,19.47
2019-02-26T16:18:08.822Z,21.63
2019-02-26T16:20:36.260Z,18.70
2019-02-26T16:23:03.873Z,18.20
2019-02-26T16:25:31.574Z,18.53
2019-02-26T16:27:59.230Z,20.60
2019-02-26T16:30:26.659Z,17.77
2019-02-26T16:32:54.397Z,20.50
2019-02-26T16:35:34.720Z,18.00
2019-02-26T16:38:02.191Z,17.45
2019-02-26T16:40:32.266Z,17.60
2019-02-26T16:42:59.072Z,18.60
2019-02-26T16:45:26.712Z,18.60
2019-02-26T16:47:54.202Z,20.33
2019-02-26T16:50:21.856Z,18.17
2019-02-26T16:52:49.567Z,19.10
2019-02-26T16:55:17.357Z,23.90
2019-02-26T16:57:45.263Z,25.33
2019-02-26T17:00:15.750Z,29.27
2019-02-26T17:02:45.490Z,20.17
2019-02-26T17:05:15.018Z,21.10
2019-02-26T17:07:42.608Z,23.90
2019-02-26T17:10:12.014Z,20.27
2019-02-26T17:12:39.366Z,21.23
2019-02-26T17:15:11.216Z,22.43
2019-02-26T17:17:39.574Z,20.00
2019-02-26T17:20:07.624Z,20.30
2019-02-26T17:22:38.409Z,22.80
2019-02-26T17:25:05.718Z,26.07
2019-02-26T17:27:33.158Z,23.90
2019-02-26T17:30:00.868Z,23.37
2019-02-26T17:32:28.480Z,24.90
2019-02-26T17:34:56.302Z,21.90
2019-02-26T17:37:23.831Z,27.33
2019-02-26T17:39:51.319Z,24.73
2019-02-26T17:42:20.552Z,21.93
2019-02-26T17:44:48.020Z,23.03
2019-02-26T17:47:15.465Z,22.23
2019-02-26T17:49:43.206Z,33.40
2019-02-26T17:52:10.783Z,58.83
2019-02-26T17:54:38.547Z,46.77
2019-02-26T17:57:05.995Z,54.33
2019-02-26T17:59:33.297Z,36.00
2019-02-26T18:02:01.149Z,27.73
2019-02-26T18:04:28.819Z,26.13
2019-02-26T18:06:57.810Z,26.77
2019-02-26T18:09:25.754Z,25.13
2019-02-26T18:11:53.165Z,23.17
2019-02-26T18:14:20.775Z,23.10
2019-02-26T18:16:48.305Z,27.60
2019-02-26T18:19:15.828Z,24.00
2019-02-26T18:21:43.629Z,24.80
2019-02-26T18:24:11.511Z,23.47
2019-02-26T18:26:38.805Z,27.43
2019-02-26T18:29:06.332Z,26.83
2019-02-26T18:31:33.702Z,21.60
2019-02-26T18:34:01.494Z,28.33
2019-02-26T18:36:29.348Z,29.27
2019-02-26T18:38:56.794Z,26.97
2019-02-26T18:41:24.250Z,33.93
2019-02-26T18:43:52.883Z,28.70
2019-02-26T18:46:20.667Z,31.67
2019-02-26T18:48:49.263Z,28.67
2019-02-26T18:51:18.240Z,27.53
2019-02-26T18:53:47.098Z,28.50
2019-02-26T18:56:15.562Z,26.87
2019-02-26T18:58:43.200Z,28.90
2019-02-26T19:01:10.690Z,33.10
2019-02-26T19:03:39.317Z,30.20
2019-02-26T19:06:07.766Z,29.60
2019-02-26T19:08:39.224Z,25.83
2019-02-26T19:11:04.995Z,27.33
2019-02-26T19:13:33.260Z,30.37
2019-02-26T19:16:02.815Z,34.90
2019-02-26T19:18:30.483Z,30.30
2019-02-26T19:20:59.041Z,38.03
2019-02-26T19:23:26.594Z,29.77
2019-02-26T19:25:54.216Z,32.13
2019-02-26T19:28:25.727Z,43.93
2019-02-26T19:30:51.242Z,37.27
2019-02-26T19:33:21.798Z,36.13
2019-02-26T19:35:48.140Z,30.93
2019-02-26T19:38:15.667Z,34.53
2019-02-26T19:40:43.338Z,33.77
2019-02-26T19:43:10.760Z,39.80
2019-02-26T19:45:38.126Z,32.85
2019-02-26T19:48:05.603Z,35.50
2019-02-26T19:50:33.148Z,36.63
2019-02-26T19:53:02.455Z,34.57
2019-02-26T19:55:32.272Z,35.13
2019-02-26T19:58:02.839Z,30.83
2019-02-26T20:00:29.628Z,31.30
2019-02-26T20:02:57.350Z,36.10
2019-02-26T20:05:24.859Z,36.40
2019-02-26T20:07:53.171Z,32.27
2019-02-26T20:10:21.172Z,33.90
2019-02-26T20:12:48.875Z,34.03
2019-02-26T20:15:16.520Z,30.93
2019-02-26T20:17:43.973Z,31.63
2019-02-26T20:20:12.088Z,34.40
2019-02-26T20:22:39.803Z,31.77
2019-02-26T20:25:09.570Z,32.50
2019-02-26T20:27:37.149Z,31.13
2019-02-26T20:30:05.163Z,32.07
2019-02-26T20:32:32.991Z,31.80
2019-02-26T20:35:00.631Z,30.80
2019-02-26T20:37:28.386Z,29.90
2019-02-26T20:39:55.991Z,35.23
2019-02-26T20:42:23.911Z,29.75
2019-02-26T20:44:58.817Z,35.97
2019-02-26T20:47:24.352Z,32.17
2019-02-26T20:49:51.682Z,30.73
2019-02-26T20:52:20.297Z,33.97
2019-02-26T20:54:47.901Z,31.50
2019-02-26T20:57:15.661Z,34.10
2019-02-26T20:59:43.461Z,38.47
2019-02-26T21:02:11.043Z,34.43
2019-02-26T21:04:38.772Z,32.60
2019-02-26T21:07:06.270Z,36.37
2019-02-26T21:09:33.912Z,32.63
2019-02-26T21:12:14.162Z,31.97
2019-02-26T21:14:41.956Z,35.90
2019-02-26T21:17:09.647Z,34.83
2019-02-26T21:19:38.418Z,37.47
2019-02-26T21:22:05.968Z,33.13
2019-02-26T21:24:34.621Z,36.53
2019-02-26T21:27:02.842Z,34.90
2019-02-26T21:29:30.130Z,38.07
2019-02-26T21:31:57.709Z,37.43
2019-02-26T21:34:25.332Z,32.27
2019-02-26T21:36:52.853Z,32.03
2019-02-26T21:39:21.684Z,36.97
2019-02-26T21:41:49.149Z,40.60
2019-02-26T21:44:18.798Z,35.37
2019-02-26T21:46:48.422Z,36.83
2019-02-26T21:49:15.944Z,34.67
2019-02-26T21:51:43.710Z,35.53
2019-02-26T21:54:11.262Z,35.53
2019-02-26T21:56:39.965Z,35.03
2019-02-26T21:59:07.587Z,34.78
2019-02-26T22:01:35.282Z,35.50
2019-02-26T22:04:03.998Z,38.53
2019-02-26T22:06:31.632Z,36.60
2019-02-26T22:08:59.433Z,31.47
2019-02-26T22:11:27.039Z,34.00
2019-02-26T22:13:54.774Z,38.23
2019-02-26T22:16:22.484Z,37.97
2019-02-26T22:18:49.995Z,34.53
2019-02-26T22:21:20.291Z,37.23
2019-02-26T22:23:47.948Z,29.40
2019-02-26T22:26:15.870Z,30.20
2019-02-26T22:28:43.583Z,32.83
2019-02-26T22:31:11.167Z,32.67
2019-02-26T22:33:40.731Z,34.17
2019-02-26T22:36:08.413Z,34.57
2019-02-26T22:38:35.954Z,35.50
2019-02-26T22:41:03.465Z,31.53
2019-02-26T22:43:30.955Z,33.30
2019-02-26T22:46:00.771Z,32.00
2019-02-26T22:48:27.862Z,32.37
2019-02-26T22:50:59.578Z,33.60
2019-02-26T22:53:27.375Z,32.30
2019-02-26T22:55:55.068Z,38.23
2019-02-26T22:58:22.624Z,30.80
2019-02-26T23:00:58.756Z,35.83
2019-02-26T23:03:28.196Z,36.30
2019-02-26T23:05:59.123Z,35.87
2019-02-26T23:08:26.462Z,32.10
2019-02-26T23:10:57.942Z,32.57
2019-02-26T23:13:25.966Z,34.07
2019-02-26T23:15:54.089Z,30.37
2019-02-26T23:18:22.359Z,28.37
2019-02-26T23:20:50.436Z,35.40
2019-02-26T23:23:21.727Z,34.10
2019-02-26T23:25:47.876Z,28.70
2019-02-26T23:28:15.800Z,36.47
2019-02-26T23:30:43.606Z,33.50
2019-02-26T23:33:15.071Z,32.73
2019-02-26T23:35:40.883Z,31.40
2019-02-26T23:38:09.176Z,31.33
2019-02-26T23:40:41.992Z,39.20
2019-02-26T23:43:11.828Z,34.30
2019-02-26T23:45:38.965Z,29.50
2019-02-26T23:48:08.031Z,32.07
2019-02-26T23:50:35.859Z,32.70
2019-02-26T23:53:03.282Z,34.40
2019-02-26T23:55:30.756Z,33.73
2019-02-26T23:57:58.612Z,31.33
